sensor_id;sensor_type;location;lat;lon;timestamp;P1;durP1;ratioP1;P2;durP2;ratioP2
9759;SDS011;4919;48.792;9.202;2022-07-22T00:00:35;18.83;;;15.70;;
9759;SDS011;4919;48.792;9.202;2022-07-22T00:03:03;26.70;;;17.20;;
9759;SDS011;4919;48.792;9.202;2022-07-22T00:05:30;17.17;;;15.40;;
9759;SDS011;4919;48.792;9.202;2022-07-22T00:07:56;18.67;;;15.97;;
9759;SDS011;4919;48.792;9.202;2022-07-22T00:10:23;16.97;;;15.27;;
9759;SDS011;4919;48.792;9.202;2022-07-22T00:12:50;15.93;;;14.33;;
9759;SDS011;4919;48.792;9.202;2022-07-22T00:15:17;17.00;;;15.20;;
9759;SDS011;4919;48.792;9.202;2022-07-22T00:17:44;19.03;;;15.50;;
9759;SDS011;4919;48.792;9.202;2022-07-22T00:20:11;17.00;;;15.23;;
9759;SDS011;4919;48.792;9.202;2022-07-22T00:22:38;17.20;;;15.60;;
9759;SDS011;4919;48.792;9.202;2022-07-22T00:25:05;17.00;;;15.47;;
9759;SDS011;4919;48.792;9.202;2022-07-22T00:27:32;16.77;;;15.13;;
9759;SDS011;4919;48.792;9.202;2022-07-22T00:29:59;17.20;;;15.40;;
9759;SDS011;4919;48.792;9.202;2022-07-22T00:32:26;16.13;;;14.50;;
9759;SDS011;4919;48.792;9.202;2022-07-22T00:34:55;15.27;;;13.77;;
9759;SDS011;4919;48.792;9.202;2022-07-22T00:37:21;16.57;;;14.87;;
9759;SDS011;4919;48.792;9.202;2022-07-22T00:39:48;15.97;;;14.57;;
9759;SDS011;4919;48.792;9.202;2022-07-22T00:42:15;16.37;;;14.77;;
9759;SDS011;4919;48.792;9.202;2022-07-22T00:44:43;15.70;;;14.13;;
9759;SDS011;4919;48.792;9.202;2022-07-22T00:47:11;17.17;;;15.37;;
9759;SDS011;4919;48.792;9.202;2022-07-22T00:49:38;19.87;;;16.10;;
9759;SDS011;4919;48.792;9.202;2022-07-22T00:52:06;15.83;;;14.40;;
9759;SDS011;4919;48.792;9.202;2022-07-22T00:54:33;15.20;;;13.80;;
9759;SDS011;4919;48.792;9.202;2022-07-22T00:57:03;16.47;;;14.80;;
9759;SDS011;4919;48.792;9.202;2022-07-22T00:59:30;15.67;;;14.10;;
9759;SDS011;4919;48.792;9.202;2022-07-22T01:01:58;15.67;;;14.17;;
9759;SDS011;4919;48.792;9.202;2022-07-22T01:04:26;14.27;;;12.77;;
9759;SDS011;4919;48.792;9.202;2022-07-22T01:06:53;12.20;;;11.10;;
9759;SDS011;4919;48.792;9.202;2022-07-22T01:09:20;12.37;;;11.17;;
9759;SDS011;4919;48.792;9.202;2022-07-22T01:11:47;11.93;;;10.83;;
9759;SDS011;4919;48.792;9.202;2022-07-22T01:14:14;14.00;;;11.60;;
9759;SDS011;4919;48.792;9.202;2022-07-22T01:16:41;11.53;;;10.43;;
9759;SDS011;4919;48.792;9.202;2022-07-22T01:19:14;12.53;;;11.43;;
9759;SDS011;4919;48.792;9.202;2022-07-22T01:21:41;13.30;;;11.90;;
9759;SDS011;4919;48.792;9.202;2022-07-22T01:24:08;11.43;;;10.43;;
9759;SDS011;4919;48.792;9.202;2022-07-22T01:26:35;10.50;;;9.47;;
9759;SDS011;4919;48.792;9.202;2022-07-22T01:29:03;9.87;;;8.97;;
9759;SDS011;4919;48.792;9.202;2022-07-22T01:31:30;9.40;;;8.50;;
9759;SDS011;4919;48.792;9.202;2022-07-22T01:33:57;10.10;;;9.20;;
9759;SDS011;4919;48.792;9.202;2022-07-22T01:36:25;9.30;;;8.47;;
9759;SDS011;4919;48.792;9.202;2022-07-22T01:38:53;9.30;;;8.50;;
9759;SDS011;4919;48.792;9.202;2022-07-22T01:41:21;8.80;;;7.90;;
9759;SDS011;4919;48.792;9.202;2022-07-22T01:43:48;8.97;;;7.80;;
9759;SDS011;4919;48.792;9.202;2022-07-22T01:46:15;8.60;;;7.90;;
9759;SDS011;4919;48.792;9.202;2022-07-22T01:48:43;8.70;;;7.80;;
9759;SDS011;4919;48.792;9.202;2022-07-22T01:51:12;8.60;;;7.80;;
9759;SDS011;4919;48.792;9.202;2022-07-22T01:53:39;8.53;;;7.57;;
9759;SDS011;4919;48.792;9.202;2022-07-22T01:56:06;8.80;;;7.93;;
9759;SDS011;4919;48.792;9.202;2022-07-22T01:58:38;8.77;;;7.97;;
9759;SDS011;4919;48.792;9.202;2022-07-22T02:01:07;8.97;;;8.07;;
9759;SDS011;4919;48.792;9.202;2022-07-22T02:03:35;8.70;;;7.80;;
9759;SDS011;4919;48.792;9.202;2022-07-22T02:06:02;7.77;;;7.07;;
9759;SDS011;4919;48.792;9.202;2022-07-22T02:08:30;7.47;;;6.80;;
9759;SDS011;4919;48.792;9.202;2022-07-22T02:11:06;7.63;;;6.93;;
9759;SDS011;4919;48.792;9.202;2022-07-22T02:13:41;8.03;;;7.27;;
9759;SDS011;4919;48.792;9.202;2022-07-22T02:16:08;8.40;;;7.60;;
9759;SDS011;4919;48.792;9.202;2022-07-22T02:18:44;9.03;;;8.13;;
9759;SDS011;4919;48.792;9.202;2022-07-22T02:21:11;9.23;;;8.43;;
9759;SDS011;4919;48.792;9.202;2022-07-22T02:23:39;9.70;;;8.70;;
9759;SDS011;4919;48.792;9.202;2022-07-22T02:26:06;9.73;;;8.73;;
9759;SDS011;4919;48.792;9.202;2022-07-22T02:28:33;9.97;;;9.07;;
9759;SDS011;4919;48.792;9.202;2022-07-22T02:31:00;9.90;;;9.00;;
9759;SDS011;4919;48.792;9.202;2022-07-22T02:33:27;10.60;;;9.60;;
9759;SDS011;4919;48.792;9.202;2022-07-22T02:35:57;10.90;;;9.80;;
9759;SDS011;4919;48.792;9.202;2022-07-22T02:38:25;11.17;;;10.07;;
9759;SDS011;4919;48.792;9.202;2022-07-22T02:40:52;11.53;;;10.33;;
9759;SDS011;4919;48.792;9.202;2022-07-22T02:43:20;12.10;;;10.90;;
9759;SDS011;4919;48.792;9.202;2022-07-22T02:45:47;12.13;;;10.93;;
9759;SDS011;4919;48.792;9.202;2022-07-22T02:48:14;12.43;;;11.13;;
9759;SDS011;4919;48.792;9.202;2022-07-22T02:50:45;13.00;;;11.07;;
9759;SDS011;4919;48.792;9.202;2022-07-22T02:53:17;11.43;;;10.33;;
9759;SDS011;4919;48.792;9.202;2022-07-22T02:55:45;13.17;;;11.97;;
9759;SDS011;4919;48.792;9.202;2022-07-22T02:58:11;13.40;;;12.00;;
9759;SDS011;4919;48.792;9.202;2022-07-22T03:00:41;13.53;;;12.10;;
9759;SDS011;4919;48.792;9.202;2022-07-22T03:03:09;13.27;;;12.00;;
9759;SDS011;4919;48.792;9.202;2022-07-22T03:05:35;13.63;;;12.43;;
9759;SDS011;4919;48.792;9.202;2022-07-22T03:08:22;16.10;;;12.77;;
9759;SDS011;4919;48.792;9.202;2022-07-22T03:10:50;14.47;;;12.97;;
9759;SDS011;4919;48.792;9.202;2022-07-22T03:13:18;15.27;;;13.67;;
9759;SDS011;4919;48.792;9.202;2022-07-22T03:15:45;14.73;;;13.17;;
9759;SDS011;4919;48.792;9.202;2022-07-22T03:18:12;16.17;;;13.77;;
9759;SDS011;4919;48.792;9.202;2022-07-22T03:20:41;16.50;;;13.60;;
9759;SDS011;4919;48.792;9.202;2022-07-22T03:23:08;15.47;;;13.87;;
9759;SDS011;4919;48.792;9.202;2022-07-22T03:25:36;16.10;;;14.37;;
9759;SDS011;4919;48.792;9.202;2022-07-22T03:28:05;17.67;;;14.17;;
9759;SDS011;4919;48.792;9.202;2022-07-22T03:30:33;15.50;;;14.00;;
9759;SDS011;4919;48.792;9.202;2022-07-22T03:33:00;15.13;;;13.63;;
9759;SDS011;4919;48.792;9.202;2022-07-22T03:35:30;15.83;;;14.30;;
9759;SDS011;4919;48.792;9.202;2022-07-22T03:37:57;16.37;;;14.60;;
9759;SDS011;4919;48.792;9.202;2022-07-22T03:40:27;15.83;;;14.23;;
9759;SDS011;4919;48.792;9.202;2022-07-22T03:42:54;16.30;;;14.80;;
9759;SDS011;4919;48.792;9.202;2022-07-22T03:45:21;16.87;;;15.07;;
9759;SDS011;4919;48.792;9.202;2022-07-22T03:47:48;18.77;;;14.80;;
9759;SDS011;4919;48.792;9.202;2022-07-22T03:50:16;15.30;;;13.87;;
9759;SDS011;4919;48.792;9.202;2022-07-22T03:52:44;17.80;;;14.93;;
9759;SDS011;4919;48.792;9.202;2022-07-22T03:55:11;17.30;;;15.50;;
9759;SDS011;4919;48.792;9.202;2022-07-22T03:57:40;17.40;;;15.60;;
9759;SDS011;4919;48.792;9.202;2022-07-22T04:00:13;18.10;;;15.30;;
9759;SDS011;4919;48.792;9.202;2022-07-22T04:02:42;17.70;;;15.80;;
9759;SDS011;4919;48.792;9.202;2022-07-22T04:05:16;18.83;;;16.30;;
9759;SDS011;4919;48.792;9.202;2022-07-22T04:07:42;19.40;;;16.33;;
9759;SDS011;4919;48.792;9.202;2022-07-22T04:10:10;19.30;;;16.30;;
9759;SDS011;4919;48.792;9.202;2022-07-22T04:12:41;20.53;;;17.30;;
9759;SDS011;4919;48.792;9.202;2022-07-22T04:15:15;17.23;;;15.43;;
9759;SDS011;4919;48.792;9.202;2022-07-22T04:17:42;16.77;;;15.07;;
9759;SDS011;4919;48.792;9.202;2022-07-22T04:20:09;18.20;;;16.37;;
9759;SDS011;4919;48.792;9.202;2022-07-22T04:22:59;20.33;;;16.33;;
9759;SDS011;4919;48.792;9.202;2022-07-22T04:25:27;17.73;;;16.00;;
9759;SDS011;4919;48.792;9.202;2022-07-22T04:27:53;18.50;;;16.60;;
9759;SDS011;4919;48.792;9.202;2022-07-22T04:30:20;19.23;;;17.23;;
9759;SDS011;4919;48.792;9.202;2022-07-22T04:32:50;18.10;;;16.17;;
9759;SDS011;4919;48.792;9.202;2022-07-22T04:35:17;17.40;;;15.60;;
9759;SDS011;4919;48.792;9.202;2022-07-22T04:37:55;17.00;;;15.30;;
9759;SDS011;4919;48.792;9.202;2022-07-22T04:40:22;17.73;;;15.87;;
9759;SDS011;4919;48.792;9.202;2022-07-22T04:42:49;17.33;;;15.60;;
9759;SDS011;4919;48.792;9.202;2022-07-22T04:45:16;18.43;;;16.57;;
9759;SDS011;4919;48.792;9.202;2022-07-22T04:47:43;18.50;;;16.50;;
9759;SDS011;4919;48.792;9.202;2022-07-22T04:50:10;18.60;;;16.70;;
9759;SDS011;4919;48.792;9.202;2022-07-22T04:52:37;18.13;;;16.23;;
9759;SDS011;4919;48.792;9.202;2022-07-22T04:55:05;18.37;;;15.60;;
9759;SDS011;4919;48.792;9.202;2022-07-22T04:57:34;17.17;;;15.57;;
9759;SDS011;4919;48.792;9.202;2022-07-22T05:00:03;17.20;;;15.50;;
9759;SDS011;4919;48.792;9.202;2022-07-22T05:02:37;16.87;;;15.27;;
9759;SDS011;4919;48.792;9.202;2022-07-22T05:05:04;18.43;;;15.80;;
9759;SDS011;4919;48.792;9.202;2022-07-22T05:07:31;16.60;;;15.00;;
9759;SDS011;4919;48.792;9.202;2022-07-22T05:09:58;17.90;;;16.17;;
9759;SDS011;4919;48.792;9.202;2022-07-22T05:12:27;16.90;;;15.10;;
9759;SDS011;4919;48.792;9.202;2022-07-22T05:14:53;16.47;;;14.97;;
9759;SDS011;4919;48.792;9.202;2022-07-22T05:17:20;16.97;;;15.40;;
9759;SDS011;4919;48.792;9.202;2022-07-22T05:20:04;17.20;;;15.60;;
9759;SDS011;4919;48.792;9.202;2022-07-22T05:22:32;17.67;;;15.87;;
9759;SDS011;4919;48.792;9.202;2022-07-22T05:25:07;18.00;;;16.30;;
9759;SDS011;4919;48.792;9.202;2022-07-22T05:27:35;19.47;;;17.33;;
9759;SDS011;4919;48.792;9.202;2022-07-22T05:30:02;19.77;;;17.77;;
9759;SDS011;4919;48.792;9.202;2022-07-22T05:32:32;18.47;;;16.67;;
9759;SDS011;4919;48.792;9.202;2022-07-22T05:35:02;18.37;;;16.63;;
9759;SDS011;4919;48.792;9.202;2022-07-22T05:37:29;18.50;;;16.67;;
9759;SDS011;4919;48.792;9.202;2022-07-22T05:39:56;19.47;;;17.47;;
9759;SDS011;4919;48.792;9.202;2022-07-22T05:42:23;20.20;;;17.83;;
9759;SDS011;4919;48.792;9.202;2022-07-22T05:44:50;18.83;;;17.07;;
9759;SDS011;4919;48.792;9.202;2022-07-22T05:47:17;19.77;;;17.77;;
9759;SDS011;4919;48.792;9.202;2022-07-22T05:49:44;19.03;;;17.03;;
9759;SDS011;4919;48.792;9.202;2022-07-22T05:52:12;19.33;;;17.30;;
9759;SDS011;4919;48.792;9.202;2022-07-22T05:54:40;19.57;;;17.57;;
9759;SDS011;4919;48.792;9.202;2022-07-22T05:57:07;18.87;;;16.83;;
9759;SDS011;4919;48.792;9.202;2022-07-22T05:59:38;18.23;;;16.53;;
9759;SDS011;4919;48.792;9.202;2022-07-22T06:02:04;17.77;;;15.97;;
9759;SDS011;4919;48.792;9.202;2022-07-22T06:04:40;16.77;;;15.07;;
9759;SDS011;4919;48.792;9.202;2022-07-22T06:07:07;16.10;;;14.53;;
9759;SDS011;4919;48.792;9.202;2022-07-22T06:09:35;15.27;;;13.87;;
9759;SDS011;4919;48.792;9.202;2022-07-22T06:12:02;15.33;;;13.93;;
9759;SDS011;4919;48.792;9.202;2022-07-22T06:14:30;14.57;;;13.27;;
9759;SDS011;4919;48.792;9.202;2022-07-22T06:16:57;15.17;;;13.67;;
9759;SDS011;4919;48.792;9.202;2022-07-22T06:19:24;16.07;;;14.37;;
9759;SDS011;4919;48.792;9.202;2022-07-22T06:21:51;15.93;;;14.30;;
9759;SDS011;4919;48.792;9.202;2022-07-22T06:24:18;14.47;;;13.07;;
9759;SDS011;4919;48.792;9.202;2022-07-22T06:26:51;15.67;;;14.27;;
9759;SDS011;4919;48.792;9.202;2022-07-22T06:29:19;15.33;;;13.83;;
9759;SDS011;4919;48.792;9.202;2022-07-22T06:31:46;15.10;;;13.60;;
9759;SDS011;4919;48.792;9.202;2022-07-22T06:34:14;15.10;;;13.47;;
9759;SDS011;4919;48.792;9.202;2022-07-22T06:36:57;14.47;;;13.07;;
9759;SDS011;4919;48.792;9.202;2022-07-22T06:39:24;13.87;;;12.53;;
9759;SDS011;4919;48.792;9.202;2022-07-22T06:41:57;13.57;;;12.27;;
9759;SDS011;4919;48.792;9.202;2022-07-22T06:44:47;14.07;;;12.77;;
9759;SDS011;4919;48.792;9.202;2022-07-22T06:47:37;14.03;;;12.63;;
9759;SDS011;4919;48.792;9.202;2022-07-22T06:50:06;12.90;;;11.70;;
9759;SDS011;4919;48.792;9.202;2022-07-22T06:52:40;12.67;;;11.57;;
9759;SDS011;4919;48.792;9.202;2022-07-22T06:55:07;12.43;;;11.13;;
9759;SDS011;4919;48.792;9.202;2022-07-22T06:57:39;11.80;;;10.80;;
9759;SDS011;4919;48.792;9.202;2022-07-22T07:00:06;13.10;;;11.80;;
9759;SDS011;4919;48.792;9.202;2022-07-22T07:02:48;11.97;;;10.83;;
9759;SDS011;4919;48.792;9.202;2022-07-22T07:05:15;12.73;;;11.47;;
9759;SDS011;4919;48.792;9.202;2022-07-22T07:07:46;11.90;;;10.90;;
9759;SDS011;4919;48.792;9.202;2022-07-22T07:10:13;12.10;;;11.00;;
9759;SDS011;4919;48.792;9.202;2022-07-22T07:12:49;11.87;;;10.83;;
9759;SDS011;4919;48.792;9.202;2022-07-22T07:15:26;10.27;;;9.37;;
9759;SDS011;4919;48.792;9.202;2022-07-22T07:18:01;11.60;;;10.40;;
9759;SDS011;4919;48.792;9.202;2022-07-22T07:20:28;11.63;;;10.63;;
9759;SDS011;4919;48.792;9.202;2022-07-22T07:22:55;11.40;;;10.40;;
9759;SDS011;4919;48.792;9.202;2022-07-22T07:25:27;11.37;;;10.30;;
9759;SDS011;4919;48.792;9.202;2022-07-22T07:27:54;10.83;;;9.87;;
9759;SDS011;4919;48.792;9.202;2022-07-22T07:30:43;10.00;;;9.20;;
9759;SDS011;4919;48.792;9.202;2022-07-22T07:33:10;9.97;;;9.17;;
9759;SDS011;4919;48.792;9.202;2022-07-22T07:35:37;9.63;;;8.83;;
9759;SDS011;4919;48.792;9.202;2022-07-22T07:38:05;9.30;;;8.30;;
9759;SDS011;4919;48.792;9.202;2022-07-22T07:40:33;10.00;;;9.10;;
9759;SDS011;4919;48.792;9.202;2022-07-22T07:43:00;9.93;;;9.03;;
9759;SDS011;4919;48.792;9.202;2022-07-22T07:45:30;9.07;;;8.27;;
9759;SDS011;4919;48.792;9.202;2022-07-22T07:47:57;9.57;;;8.67;;
9759;SDS011;4919;48.792;9.202;2022-07-22T07:50:25;9.20;;;8.40;;
9759;SDS011;4919;48.792;9.202;2022-07-22T07:52:53;9.13;;;8.27;;
9759;SDS011;4919;48.792;9.202;2022-07-22T07:55:24;9.20;;;8.23;;
9759;SDS011;4919;48.792;9.202;2022-07-22T07:57:51;8.80;;;8.10;;
9759;SDS011;4919;48.792;9.202;2022-07-22T08:00:21;9.33;;;8.10;;
9759;SDS011;4919;48.792;9.202;2022-07-22T08:02:50;8.83;;;8.03;;
9759;SDS011;4919;48.792;9.202;2022-07-22T08:05:18;8.63;;;7.77;;
9759;SDS011;4919;48.792;9.202;2022-07-22T08:07:49;8.07;;;7.37;;
9759;SDS011;4919;48.792;9.202;2022-07-22T08:10:17;8.50;;;7.80;;
9759;SDS011;4919;48.792;9.202;2022-07-22T08:13:21;7.87;;;7.17;;
9759;SDS011;4919;48.792;9.202;2022-07-22T08:16:00;7.50;;;6.80;;
9759;SDS011;4919;48.792;9.202;2022-07-22T08:18:28;7.47;;;6.67;;
9759;SDS011;4919;48.792;9.202;2022-07-22T08:20:55;7.13;;;6.53;;
9759;SDS011;4919;48.792;9.202;2022-07-22T08:23:37;7.47;;;6.87;;
9759;SDS011;4919;48.792;9.202;2022-07-22T08:26:04;7.40;;;6.70;;
9759;SDS011;4919;48.792;9.202;2022-07-22T08:28:32;7.43;;;6.50;;
9759;SDS011;4919;48.792;9.202;2022-07-22T08:30:59;7.30;;;6.70;;
9759;SDS011;4919;48.792;9.202;2022-07-22T08:33:31;6.57;;;6.07;;
9759;SDS011;4919;48.792;9.202;2022-07-22T08:35:58;7.20;;;6.60;;
9759;SDS011;4919;48.792;9.202;2022-07-22T08:38:25;6.87;;;6.37;;
9759;SDS011;4919;48.792;9.202;2022-07-22T08:40:56;6.93;;;6.33;;
9759;SDS011;4919;48.792;9.202;2022-07-22T08:43:31;7.07;;;6.37;;
9759;SDS011;4919;48.792;9.202;2022-07-22T08:46:02;7.50;;;6.73;;
9759;SDS011;4919;48.792;9.202;2022-07-22T08:48:41;7.07;;;6.47;;
9759;SDS011;4919;48.792;9.202;2022-07-22T08:51:35;6.40;;;5.90;;
9759;SDS011;4919;48.792;9.202;2022-07-22T08:54:23;6.23;;;5.73;;
9759;SDS011;4919;48.792;9.202;2022-07-22T08:56:51;5.90;;;5.50;;
9759;SDS011;4919;48.792;9.202;2022-07-22T08:59:20;6.00;;;5.50;;
9759;SDS011;4919;48.792;9.202;2022-07-22T09:04:56;5.30;;;4.90;;
9759;SDS011;4919;48.792;9.202;2022-07-22T09:07:45;6.23;;;5.60;;
9759;SDS011;4919;48.792;9.202;2022-07-22T09:10:22;5.43;;;5.03;;
9759;SDS011;4919;48.792;9.202;2022-07-22T09:13:08;5.90;;;5.37;;
9759;SDS011;4919;48.792;9.202;2022-07-22T09:15:51;5.80;;;5.30;;
9759;SDS011;4919;48.792;9.202;2022-07-22T09:18:45;5.70;;;5.20;;
9759;SDS011;4919;48.792;9.202;2022-07-22T09:21:33;5.40;;;4.90;;
9759;SDS011;4919;48.792;9.202;2022-07-22T09:24:31;5.03;;;4.63;;
9759;SDS011;4919;48.792;9.202;2022-07-22T09:27:26;4.80;;;4.40;;
9759;SDS011;4919;48.792;9.202;2022-07-22T09:30:18;5.17;;;4.77;;
9759;SDS011;4919;48.792;9.202;2022-07-22T09:33:07;5.30;;;4.90;;
9759;SDS011;4919;48.792;9.202;2022-07-22T09:35:50;5.80;;;5.30;;
9759;SDS011;4919;48.792;9.202;2022-07-22T09:38:26;5.13;;;4.73;;
9759;SDS011;4919;48.792;9.202;2022-07-22T09:41:01;5.30;;;4.80;;
9759;SDS011;4919;48.792;9.202;2022-07-22T09:43:34;6.03;;;5.10;;
9759;SDS011;4919;48.792;9.202;2022-07-22T09:46:02;5.10;;;4.70;;
9759;SDS011;4919;48.792;9.202;2022-07-22T09:48:49;6.00;;;5.40;;
9759;SDS011;4919;48.792;9.202;2022-07-22T09:51:34;5.87;;;5.47;;
9759;SDS011;4919;48.792;9.202;2022-07-22T09:54:37;5.50;;;5.00;;
9759;SDS011;4919;48.792;9.202;2022-07-22T09:57:04;5.97;;;5.40;;
9759;SDS011;4919;48.792;9.202;2022-07-22T09:59:31;5.63;;;5.20;;
9759;SDS011;4919;48.792;9.202;2022-07-22T10:02:12;5.70;;;5.20;;
9759;SDS011;4919;48.792;9.202;2022-07-22T10:04:41;5.40;;;5.00;;
9759;SDS011;4919;48.792;9.202;2022-07-22T10:07:12;5.63;;;5.13;;
9759;SDS011;4919;48.792;9.202;2022-07-22T10:09:41;5.10;;;4.70;;
9759;SDS011;4919;48.792;9.202;2022-07-22T10:12:12;5.20;;;4.70;;
9759;SDS011;4919;48.792;9.202;2022-07-22T10:14:41;4.70;;;4.30;;
9759;SDS011;4919;48.792;9.202;2022-07-22T10:17:08;5.27;;;4.87;;
9759;SDS011;4919;48.792;9.202;2022-07-22T10:19:36;5.07;;;4.63;;
9759;SDS011;4919;48.792;9.202;2022-07-22T10:22:03;4.83;;;4.43;;
9759;SDS011;4919;48.792;9.202;2022-07-22T10:24:30;5.13;;;4.70;;
9759;SDS011;4919;48.792;9.202;2022-07-22T10:26:58;5.13;;;4.70;;
9759;SDS011;4919;48.792;9.202;2022-07-22T10:29:43;5.87;;;4.80;;
9759;SDS011;4919;48.792;9.202;2022-07-22T10:34:42;5.73;;;4.37;;
9759;SDS011;4919;48.792;9.202;2022-07-22T10:40:16;4.70;;;4.30;;
9759;SDS011;4919;48.792;9.202;2022-07-22T10:43:09;4.30;;;4.00;;
9759;SDS011;4919;48.792;9.202;2022-07-22T10:45:37;4.43;;;4.13;;
9759;SDS011;4919;48.792;9.202;2022-07-22T10:48:12;4.80;;;3.97;;
9759;SDS011;4919;48.792;9.202;2022-07-22T10:50:45;4.60;;;4.20;;
9759;SDS011;4919;48.792;9.202;2022-07-22T10:53:20;4.27;;;3.87;;
9759;SDS011;4919;48.792;9.202;2022-07-22T10:56:02;4.17;;;3.77;;
9759;SDS011;4919;48.792;9.202;2022-07-22T11:00:59;4.30;;;3.93;;
9759;SDS011;4919;48.792;9.202;2022-07-22T11:03:28;3.87;;;3.60;;
9759;SDS011;4919;48.792;9.202;2022-07-22T11:08:46;3.77;;;3.47;;
9759;SDS011;4919;48.792;9.202;2022-07-22T11:11:14;3.97;;;3.60;;
9759;SDS011;4919;48.792;9.202;2022-07-22T11:13:43;3.90;;;3.53;;
9759;SDS011;4919;48.792;9.202;2022-07-22T11:16:21;3.73;;;3.43;;
9759;SDS011;4919;48.792;9.202;2022-07-22T11:18:54;3.80;;;3.50;;
9759;SDS011;4919;48.792;9.202;2022-07-22T11:21:30;3.77;;;3.47;;
9759;SDS011;4919;48.792;9.202;2022-07-22T11:24:04;4.07;;;3.77;;
9759;SDS011;4919;48.792;9.202;2022-07-22T11:29:08;4.63;;;4.23;;
9759;SDS011;4919;48.792;9.202;2022-07-22T11:31:37;4.57;;;4.17;;
9759;SDS011;4919;48.792;9.202;2022-07-22T11:34:08;5.27;;;4.50;;
9759;SDS011;4919;48.792;9.202;2022-07-22T11:36:39;5.20;;;4.70;;
9759;SDS011;4919;48.792;9.202;2022-07-22T11:39:08;4.70;;;4.40;;
9759;SDS011;4919;48.792;9.202;2022-07-22T11:41:36;4.70;;;4.30;;
9759;SDS011;4919;48.792;9.202;2022-07-22T11:44:03;5.13;;;4.40;;
9759;SDS011;4919;48.792;9.202;2022-07-22T11:46:39;4.97;;;4.10;;
9759;SDS011;4919;48.792;9.202;2022-07-22T11:49:08;4.90;;;4.40;;
9759;SDS011;4919;48.792;9.202;2022-07-22T11:51:39;4.63;;;4.23;;
9759;SDS011;4919;48.792;9.202;2022-07-22T11:54:06;4.30;;;4.00;;
9759;SDS011;4919;48.792;9.202;2022-07-22T11:56:33;4.20;;;3.90;;
9759;SDS011;4919;48.792;9.202;2022-07-22T11:59:01;4.77;;;4.37;;
9759;SDS011;4919;48.792;9.202;2022-07-22T12:01:32;4.07;;;3.77;;
9759;SDS011;4919;48.792;9.202;2022-07-22T12:04:05;4.50;;;4.10;;
9759;SDS011;4919;48.792;9.202;2022-07-22T12:06:34;4.80;;;4.40;;
9759;SDS011;4919;48.792;9.202;2022-07-22T12:09:07;4.30;;;3.90;;
9759;SDS011;4919;48.792;9.202;2022-07-22T12:11:36;4.37;;;3.93;;
9759;SDS011;4919;48.792;9.202;2022-07-22T12:14:09;6.93;;;3.93;;
9759;SDS011;4919;48.792;9.202;2022-07-22T12:16:53;4.10;;;3.70;;
9759;SDS011;4919;48.792;9.202;2022-07-22T12:19:23;4.57;;;4.10;;
9759;SDS011;4919;48.792;9.202;2022-07-22T12:21:56;4.50;;;3.70;;
9759;SDS011;4919;48.792;9.202;2022-07-22T12:27:04;4.00;;;3.60;;
9759;SDS011;4919;48.792;9.202;2022-07-22T12:29:42;3.77;;;3.47;;
9759;SDS011;4919;48.792;9.202;2022-07-22T12:32:15;4.17;;;3.87;;
9759;SDS011;4919;48.792;9.202;2022-07-22T12:37:31;3.63;;;3.33;;
9759;SDS011;4919;48.792;9.202;2022-07-22T12:42:38;3.93;;;3.63;;
9759;SDS011;4919;48.792;9.202;2022-07-22T12:45:10;3.43;;;3.23;;
9759;SDS011;4919;48.792;9.202;2022-07-22T12:47:49;3.77;;;3.33;;
9759;SDS011;4919;48.792;9.202;2022-07-22T12:50:29;3.40;;;3.10;;
9759;SDS011;4919;48.792;9.202;2022-07-22T12:53:07;3.03;;;2.80;;
9759;SDS011;4919;48.792;9.202;2022-07-22T12:55:56;2.93;;;2.73;;
9759;SDS011;4919;48.792;9.202;2022-07-22T12:58:26;3.23;;;2.93;;
9759;SDS011;4919;48.792;9.202;2022-07-22T13:00:56;3.00;;;2.70;;
9759;SDS011;4919;48.792;9.202;2022-07-22T13:03:25;2.90;;;2.70;;
9759;SDS011;4919;48.792;9.202;2022-07-22T13:05:54;2.97;;;2.70;;
9759;SDS011;4919;48.792;9.202;2022-07-22T13:08:23;2.50;;;2.30;;
9759;SDS011;4919;48.792;9.202;2022-07-22T13:10:52;2.87;;;2.67;;
9759;SDS011;4919;48.792;9.202;2022-07-22T13:13:20;4.20;;;2.60;;
9759;SDS011;4919;48.792;9.202;2022-07-22T13:15:48;2.80;;;2.60;;
9759;SDS011;4919;48.792;9.202;2022-07-22T13:18:16;3.27;;;2.93;;
9759;SDS011;4919;48.792;9.202;2022-07-22T13:20:44;2.80;;;2.50;;
9759;SDS011;4919;48.792;9.202;2022-07-22T13:23:11;2.80;;;2.60;;
9759;SDS011;4919;48.792;9.202;2022-07-22T13:25:38;3.00;;;2.80;;
9759;SDS011;4919;48.792;9.202;2022-07-22T13:28:05;2.93;;;2.63;;
9759;SDS011;4919;48.792;9.202;2022-07-22T13:30:32;3.20;;;2.93;;
9759;SDS011;4919;48.792;9.202;2022-07-22T13:32:59;3.17;;;2.60;;
9759;SDS011;4919;48.792;9.202;2022-07-22T13:35:26;2.90;;;2.70;;
9759;SDS011;4919;48.792;9.202;2022-07-22T13:37:55;3.80;;;2.80;;
9759;SDS011;4919;48.792;9.202;2022-07-22T13:40:23;2.87;;;2.67;;
9759;SDS011;4919;48.792;9.202;2022-07-22T13:42:51;3.00;;;2.70;;
9759;SDS011;4919;48.792;9.202;2022-07-22T13:45:18;2.47;;;2.30;;
9759;SDS011;4919;48.792;9.202;2022-07-22T13:47:46;2.83;;;2.43;;
9759;SDS011;4919;48.792;9.202;2022-07-22T13:50:13;3.10;;;2.80;;
9759;SDS011;4919;48.792;9.202;2022-07-22T13:52:40;2.60;;;2.40;;
9759;SDS011;4919;48.792;9.202;2022-07-22T13:55:07;2.60;;;2.40;;
9759;SDS011;4919;48.792;9.202;2022-07-22T13:57:34;4.90;;;2.63;;
9759;SDS011;4919;48.792;9.202;2022-07-22T14:00:02;2.87;;;2.67;;
9759;SDS011;4919;48.792;9.202;2022-07-22T14:02:37;2.97;;;2.43;;
9759;SDS011;4919;48.792;9.202;2022-07-22T14:05:05;3.57;;;2.43;;
9759;SDS011;4919;48.792;9.202;2022-07-22T14:07:32;2.40;;;2.20;;
9759;SDS011;4919;48.792;9.202;2022-07-22T14:09:59;2.80;;;2.50;;
9759;SDS011;4919;48.792;9.202;2022-07-22T14:12:26;2.43;;;2.23;;
9759;SDS011;4919;48.792;9.202;2022-07-22T14:14:53;2.47;;;2.27;;
9759;SDS011;4919;48.792;9.202;2022-07-22T14:17:20;3.77;;;2.47;;
9759;SDS011;4919;48.792;9.202;2022-07-22T14:19:51;2.50;;;2.30;;
9759;SDS011;4919;48.792;9.202;2022-07-22T14:22:24;2.50;;;2.30;;
9759;SDS011;4919;48.792;9.202;2022-07-22T14:24:51;2.70;;;2.50;;
9759;SDS011;4919;48.792;9.202;2022-07-22T14:27:18;2.50;;;2.30;;
9759;SDS011;4919;48.792;9.202;2022-07-22T14:29:45;3.97;;;2.47;;
9759;SDS011;4919;48.792;9.202;2022-07-22T14:32:12;2.93;;;2.30;;
9759;SDS011;4919;48.792;9.202;2022-07-22T14:34:39;2.70;;;2.50;;
9759;SDS011;4919;48.792;9.202;2022-07-22T14:37:05;2.30;;;2.10;;
9759;SDS011;4919;48.792;9.202;2022-07-22T14:39:35;2.40;;;2.20;;
9759;SDS011;4919;48.792;9.202;2022-07-22T14:42:02;2.20;;;2.00;;
9759;SDS011;4919;48.792;9.202;2022-07-22T14:44:29;2.50;;;2.30;;
9759;SDS011;4919;48.792;9.202;2022-07-22T14:46:56;2.37;;;2.17;;
9759;SDS011;4919;48.792;9.202;2022-07-22T14:49:23;2.53;;;2.00;;
9759;SDS011;4919;48.792;9.202;2022-07-22T14:51:50;2.50;;;2.30;;
9759;SDS011;4919;48.792;9.202;2022-07-22T14:54:17;2.50;;;2.30;;
9759;SDS011;4919;48.792;9.202;2022-07-22T14:56:45;2.93;;;2.20;;
9759;SDS011;4919;48.792;9.202;2022-07-22T14:59:12;2.30;;;2.10;;
9759;SDS011;4919;48.792;9.202;2022-07-22T15:01:39;2.70;;;2.10;;
9759;SDS011;4919;48.792;9.202;2022-07-22T15:04:06;2.97;;;2.50;;
9759;SDS011;4919;48.792;9.202;2022-07-22T15:06:33;2.40;;;1.97;;
9759;SDS011;4919;48.792;9.202;2022-07-22T15:09:00;2.33;;;2.13;;
9759;SDS011;4919;48.792;9.202;2022-07-22T15:11:27;2.20;;;2.07;;
9759;SDS011;4919;48.792;9.202;2022-07-22T15:13:53;3.27;;;2.53;;
9759;SDS011;4919;48.792;9.202;2022-07-22T15:16:21;2.20;;;2.10;;
9759;SDS011;4919;48.792;9.202;2022-07-22T15:18:49;2.30;;;2.10;;
9759;SDS011;4919;48.792;9.202;2022-07-22T15:21:16;2.40;;;2.20;;
9759;SDS011;4919;48.792;9.202;2022-07-22T15:23:43;2.73;;;2.10;;
9759;SDS011;4919;48.792;9.202;2022-07-22T15:26:10;2.50;;;2.30;;
9759;SDS011;4919;48.792;9.202;2022-07-22T15:28:37;2.90;;;2.20;;
9759;SDS011;4919;48.792;9.202;2022-07-22T15:31:04;3.60;;;2.10;;
9759;SDS011;4919;48.792;9.202;2022-07-22T15:33:32;3.23;;;2.20;;
9759;SDS011;4919;48.792;9.202;2022-07-22T15:36:04;2.30;;;2.10;;
9759;SDS011;4919;48.792;9.202;2022-07-22T15:38:33;3.50;;;2.20;;
9759;SDS011;4919;48.792;9.202;2022-07-22T15:41:00;2.40;;;2.20;;
9759;SDS011;4919;48.792;9.202;2022-07-22T15:43:28;2.30;;;2.10;;
9759;SDS011;4919;48.792;9.202;2022-07-22T15:45:55;3.90;;;3.60;;